Thursday, April 17, 2014
01:12 UTC
  |  Log In   |  Register Free
Airport Search:

Pocono Mountains Municipal Airport
(KMPO)

Pocono Mountains Municipal Airport Diagram
No Airport Diagram Available

FAA data valid effective April 3, 2014 until May 29, 2014 (unless otherwise noted).

 
 
 
 
 
 
 
 
 
 
 
 
 
 

Current Aviation Weather for Pocono Mountains Municipal Airport (KMPO)

The most recent METAR observation for KMPO was updated at: 0053 UTC
METAR Summary (Translated METAR)
KMPO
170053Z AUTO 36003KT 10SM CLR M01/M10 A3045 RMK AO2 SLP338 T10061100
KAVP
(19.6 nm NW from KMPO)
170054Z AUTO 01005KT 10SM CLR 02/M08 A3050 RMK AO2 SLP338 T00171083 TSNO
TAF Summary (Translated TAF)
KAVP
(19.6 nm NW from KMPO)
161730Z 1618/1718 36010G16KT P6SM SKC FM170000 09006KT P6SM SKC
KABE
(29.3 nm SW from KMPO)
161723Z 1618/1718 35012G20KT P6SM SKC FM162100 35007KT P6SM SKC FM170400 07004KT P6SM FEW250 FM171200 09008KT P6SM SCT250
  Airport Weather Conditions for KMPO

 Current Weather at MPO
33° F
Fair
North winds at 5.8 mph
MPO NOAA Radar

Pressure: 30.41 in
Humidity: 45%
Wind: North at 5.8 MPH (5 KT)
Dew Point: 14.0°F
Visibility: 10.00 mi


Airport Weather Forecast for KMPO

Translated METAR and TAF for KMPO
Translated METAR for KMPO (0112 UTC 17 April 2014)
found at http://aviationweather.gov/adds/metars/
 
METAR text: KMPO 170053Z AUTO 36003KT 10SM CLR M01/M10 A3045 RMK AO2 SLP338 T10061100
Conditions at: KMPO (MT. POCONO , PA, US) observed 0053 UTC 17 April 2014
Temperature: -0.6°C (31°F)
Dewpoint: -10.0°C (14°F) [RH = 49%]
Pressure (altimeter): 30.45 inches Hg (1031.2 mb)
[Sea-level pressure: 1033.8 mb]
Winds: from the N (360 degrees) at 3 MPH (3 knots; 1.6 m/s)
Visibility: 10 or more miles (16+ km)
Ceiling: at least 12,000 feet AGL
Clouds: sky clear below 12,000 feet AGL
Weather: automated observation with no human augmentation;
there may or may not be significant weather present at this time
Translated TAF for KMPO

There is no translated TAF available for this airport

Find All Airport Services Find A Hotel Find A Rental Car Find A Golf Course Find A Restaurant $100 Hamburger



FBO's on the Field
FBO Company Facility Photos Services Transportation Aviation Fuel Prices: Prices include tax
Catering Weather Repair Courtesy Rental Type 100LL JetA JetA+ MOGAS 8087
 
Pocono Mountains Municipal Airport Authority

This FBO has not yet been rated
FS:Phillips66
Last Updated: Mar-10
Login to update fuel prices
SS:
Contact Pocono Mountains Municipal Airport AuthorityMore FBO Information
 
Add another FBO Facility Photos Catering Weather Repair Courtesy Rental Type 100LL JetA JetA+ MOGAS 8087
Services Transportation Aviation Fuel Prices: Prices include tax


GlobalAir.com Airport Resource Center model-print
model-print
model-print
model-print